Time;durP1;ratioP1;P1;durP2;ratioP2;P2;SDS_P1;SDS_P2;PMS_P1;PMS_P2;Temp;Humidity;BMP_temperature;BMP_pressure;BME280_temperature;BME280_humidity;BME280_pressure;Samples;Min_cycle;Max_cycle;Signal;HPM_P1;HPM_P2
2022/07/24 00:01:31;;;;;;;9.43;4.40;;;;;;;24.69;37.82;100409.47;125799;1098;104210;-78
2022/07/24 00:04:05;;;;;;;10.55;4.72;;;;;;;24.66;37.71;100408.67;125705;1099;104226;-78
2022/07/24 00:06:36;;;;;;;;;;;;;;;24.61;37.95;100406.09;124889;1099;102367;-78
2022/07/24 00:09:08;;;;;;;9.77;4.67;;;;;;;24.57;37.94;100401.71;124846;1099;101922;-78
2022/07/24 00:11:41;;;;;;;14.87;5.00;;;;;;;24.54;38.35;100410.70;124816;1099;102737;-78
2022/07/24 00:14:13;;;;;;;13.23;4.90;;;;;;;24.53;38.13;100414.29;124809;1099;104271;-78
2022/07/24 00:16:45;;;;;;;10.67;4.60;;;;;;;24.51;38.32;100409.87;124779;1099;102128;-78
2022/07/24 00:19:17;;;;;;;11.23;4.83;;;;;;;24.46;38.28;100406.42;124761;1099;104159;-78
2022/07/24 00:21:49;;;;;;;12.63;5.00;;;;;;;24.42;38.41;100402.94;124821;1099;104268;-78
2022/07/24 00:24:20;;;;;;;12.70;4.80;;;;;;;24.40;38.66;100402.06;124768;1099;104386;-78
2022/07/24 00:26:51;;;;;;;16.07;5.30;;;;;;;24.35;38.61;100394.13;124810;1099;104159;-78
2022/07/24 00:29:23;;;;;;;11.87;5.37;;;;;;;24.33;38.99;100395.97;124825;1099;104233;-78
2022/07/24 00:31:57;;;;;;;15.77;5.87;;;;;;;24.31;39.12;100389.77;124785;1099;104188;-79
2022/07/24 00:34:28;;;;;;;15.87;6.10;;;;;;;24.30;39.00;100396.05;124775;1099;104217;-78
2022/07/24 00:37:00;;;;;;;16.97;5.73;;;;;;;24.27;39.34;100390.75;124796;1099;102688;-78
2022/07/24 00:39:32;;;;;;;15.93;5.90;;;;;;;24.26;39.39;100393.46;124869;1099;104191;-78
2022/07/24 00:42:03;;;;;;;17.70;6.00;;;;;;;24.23;39.17;100386.36;124821;1099;102162;-77
2022/07/24 00:44:35;;;;;;;16.87;6.03;;;;;;;24.18;39.50;100378.45;124876;1099;101841;-78
2022/07/24 00:47:06;;;;;;;14.90;5.73;;;;;;;24.14;39.84;100373.20;124848;1099;102982;-78
2022/07/24 00:49:38;;;;;;;15.60;6.50;;;;;;;24.08;39.98;100373.33;125705;1099;104172;-77
2022/07/24 00:52:09;;;;;;;15.17;5.70;;;;;;;24.04;40.22;100361.77;124824;1099;104153;-77
2022/07/24 00:54:42;;;;;;;15.27;5.60;;;;;;;23.99;40.21;100356.52;124855;1099;104235;-78
2022/07/24 00:57:13;;;;;;;15.43;6.10;;;;;;;23.97;40.19;100344.09;124871;1099;102772;-78
2022/07/24 00:59:45;;;;;;;11.70;5.50;;;;;;;23.94;40.35;100339.66;124818;1099;104374;-78
2022/07/24 01:02:16;;;;;;;12.97;5.90;;;;;;;23.91;40.22;100342.41;125613;1099;101898;-79
2022/07/24 01:04:51;;;;;;;15.23;5.97;;;;;;;23.86;40.30;100342.52;125759;1098;104230;-77
2022/07/24 01:07:22;;;;;;;12.57;5.60;;;;;;;23.83;40.65;100337.19;124679;1099;104156;-78
2022/07/24 01:09:54;;;;;;;16.00;5.83;;;;;;;23.80;40.96;100337.25;124804;1099;102755;-78
2022/07/24 01:12:27;;;;;;;20.33;5.97;;;;;;;23.76;40.87;100337.34;124887;1099;104322;-78
2022/07/24 01:14:59;;;;;;;12.53;5.70;;;;;;;23.70;41.30;100341.06;124830;1099;104268;-78
2022/07/24 01:17:38;;;;;;;14.53;5.10;;;;;;;23.65;41.13;100333.12;124766;1099;104054;-77
2022/07/24 01:20:11;;;;;;;16.47;5.53;;;;;;;23.60;41.40;100329.63;124850;1099;104160;-78
2022/07/24 01:22:43;;;;;;;14.23;5.47;;;;;;;23.62;41.46;100330.50;124864;1098;104229;-78
2022/07/24 01:25:17;;;;;;;12.07;5.70;;;;;;;23.62;41.48;100334.95;124790;1099;103040;-77
2022/07/24 01:27:48;;;;;;;14.03;5.23;;;;;;;23.60;42.26;100334.98;124749;1099;104314;-78
2022/07/24 01:30:20;;;;;;;13.33;5.90;;;;;;;23.57;42.00;100336.86;124826;1099;102819;-78
2022/07/24 01:32:51;;;;;;;14.70;5.07;;;;;;;23.53;41.68;100322.66;124839;1098;102622;-78
2022/07/24 01:35:23;;;;;;;13.07;4.90;;;;;;;23.52;42.52;100331.59;124810;1099;102787;-78
2022/07/24 01:37:55;;;;;;;12.80;4.93;;;;;;;23.51;41.97;100333.41;124838;1099;104242;-78
2022/07/24 01:40:27;;;;;;;8.55;4.60;;;;;;;23.51;42.25;100341.44;124982;1099;104239;-77
2022/07/24 01:43:00;;;;;;;8.45;4.20;;;;;;;23.52;42.46;100342.30;124954;1099;104242;-77
2022/07/24 01:45:32;;;;;;;9.57;4.53;;;;;;;23.49;42.22;100337.02;125780;1099;104172;-78
2022/07/24 01:48:04;;;;;;;12.13;4.40;;;;;;;23.47;42.59;100334.36;124899;1099;102228;-77
2022/07/24 01:50:35;;;;;;;12.80;4.47;;;;;;;23.46;42.22;100331.72;124890;1099;102979;-78
2022/07/24 01:53:07;;;;;;;12.97;4.60;;;;;;;23.46;42.21;100329.05;125719;1099;103254;-77
2022/07/24 01:55:38;;;;;;;10.30;4.60;;;;;;;23.43;42.67;100327.30;124848;1099;104654;-77
2022/07/24 01:58:10;;;;;;;11.37;4.63;;;;;;;23.40;42.64;100321.13;124830;1099;104166;-77
2022/07/24 02:00:42;;;;;;;14.40;4.60;;;;;;;23.37;42.91;100322.06;124841;1099;102782;-78
2022/07/24 02:03:13;;;;;;;14.63;4.97;;;;;;;23.37;42.77;100321.19;124842;1099;104159;-78
2022/07/24 02:05:45;;;;;;;12.47;5.50;;;;;;;23.32;42.86;100321.28;124813;1099;102368;-78
2022/07/24 02:08:16;;;;;;;11.37;4.97;;;;;;;23.27;42.98;100332.08;124758;1099;104198;-77
2022/07/24 02:10:48;;;;;;;14.30;5.33;;;;;;;23.22;43.35;100333.06;124831;1099;104198;-77
2022/07/24 02:13:22;;;;;;;11.10;4.73;;;;;;;23.20;43.33;100324.20;124901;1099;101997;-77
2022/07/24 02:15:53;;;;;;;12.33;4.63;;;;;;;23.18;42.83;100326.91;124807;1099;104307;-77
2022/07/24 02:18:25;;;;;;;16.50;5.40;;;;;;;23.17;43.10;100319.80;124775;1098;104377;-77
2022/07/24 02:20:58;;;;;;;15.27;4.90;;;;;;;23.17;43.38;100317.12;124851;1098;104162;-78
2022/07/24 02:23:30;;;;;;;11.23;4.83;;;;;;;23.17;43.59;100313.55;124744;1099;102800;-78
2022/07/24 02:26:01;;;;;;;15.77;4.80;;;;;;;23.14;42.95;100307.35;124835;1099;103206;-78
2022/07/24 02:28:33;;;;;;;16.00;4.90;;;;;;;23.14;43.01;100301.13;124813;1099;104208;-77
2022/07/24 02:31:05;;;;;;;11.77;4.90;;;;;;;23.12;43.04;100313.63;124819;1099;104258;-77
2022/07/24 02:33:37;;;;;;;11.57;4.63;;;;;;;23.07;43.06;100315.49;125698;1098;104175;-78
2022/07/24 02:36:09;;;;;;;15.23;5.03;;;;;;;23.06;42.81;100309.27;125216;1099;103012;-78
2022/07/24 02:38:41;;;;;;;11.95;4.70;;;;;;;23.09;43.15;100313.69;124826;1099;103305;-78
2022/07/24 02:41:15;;;;;;;15.07;5.03;;;;;;;23.08;43.51;100312.82;124901;1099;102373;-79
2022/07/24 02:43:48;;;;;;;15.70;5.10;;;;;;;23.10;43.23;100307.44;124865;1099;102184;-78
2022/07/24 02:46:22;;;;;;;15.07;4.43;;;;;;;23.10;43.05;100308.31;125725;1099;104626;-79
2022/07/24 02:48:55;;;;;;;16.87;4.83;;;;;;;23.10;43.38;100313.66;125045;1099;102861;-78
2022/07/24 02:51:28;;;;;;;12.73;4.83;;;;;;;23.09;43.14;100311.92;124921;1098;104300;-78
2022/07/24 02:54:00;;;;;;;8.90;4.37;;;;;;;23.10;43.09;100312.79;124950;1099;104198;-78
2022/07/24 02:56:34;;;;;;;11.30;4.80;;;;;;;23.10;43.67;100308.31;124848;1099;104105;-78
2022/07/24 02:59:11;;;;;;;12.97;4.40;;;;;;;23.11;43.15;100307.41;125775;1099;104192;-79
2022/07/24 03:01:48;;;;;;;13.70;4.60;;;;;;;23.12;42.87;100301.16;125779;1099;104226;-79
2022/07/24 03:04:26;;;;;;;11.70;4.97;;;;;;;23.13;43.24;100307.38;125702;1099;104265;-79
2022/07/24 03:06:58;;;;;;;13.73;5.00;;;;;;;23.15;43.53;100305.55;125728;1097;104166;-80
2022/07/24 03:09:30;;;;;;;14.97;5.07;;;;;;;23.14;43.11;100310.03;125781;1099;102240;-78
2022/07/24 03:12:01;;;;;;;17.03;5.47;;;;;;;23.18;42.97;100309.97;124847;1099;104259;-79
2022/07/24 03:14:33;;;;;;;17.17;5.53;;;;;;;23.21;43.00;100310.78;124878;1099;104210;-78
2022/07/24 03:17:05;;;;;;;19.43;5.30;;;;;;;23.25;43.54;100303.56;125406;1099;104236;-78
2022/07/24 03:19:37;;;;;;;13.70;5.20;;;;;;;23.25;43.37;100303.56;125838;1099;102840;-79
2022/07/24 03:22:09;;;;;;;13.90;5.23;;;;;;;23.26;43.70;100303.53;124924;1099;102359;-78
2022/07/24 03:24:40;;;;;;;14.20;4.90;;;;;;;23.29;43.52;100303.47;124900;1099;104236;-79
2022/07/24 03:27:12;;;;;;;15.17;5.40;;;;;;;23.28;43.76;100293.70;125715;1099;104126;-77
2022/07/24 03:29:43;;;;;;;12.33;5.60;;;;;;;23.30;43.77;100297.22;124901;1099;104198;-78
2022/07/24 03:32:15;;;;;;;18.60;5.37;;;;;;;23.32;43.37;100297.19;124869;1099;102999;-78
2022/07/24 03:34:46;;;;;;;14.90;5.17;;;;;;;23.35;43.45;100299.80;124821;1098;104172;-78
2022/07/24 03:37:18;;;;;;;13.23;4.83;;;;;;;23.36;43.62;100303.35;124881;1099;104223;-78
2022/07/24 03:39:49;;;;;;;14.27;5.03;;;;;;;23.38;43.60;100304.23;124972;1099;102254;-78
2022/07/24 03:42:22;;;;;;;14.10;5.23;;;;;;;23.36;43.31;100300.67;124998;1099;103693;-78
2022/07/24 03:45:02;;;;;;;17.15;5.60;;;;;;;23.37;43.53;100299.77;125837;1099;104183;-77
2022/07/24 03:47:36;;;;;;;13.10;4.93;;;;;;;23.36;43.51;100311.38;125690;1099;104291;-77
2022/07/24 03:50:12;;;;;;;12.93;5.20;;;;;;;23.40;43.93;100307.74;124857;1099;104158;-78
2022/07/24 03:52:44;;;;;;;14.13;5.10;;;;;;;23.45;43.54;100308.52;125732;1099;104165;-78
2022/07/24 03:55:15;;;;;;;12.73;5.20;;;;;;;23.49;43.46;100307.56;124908;1099;102832;-78
2022/07/24 03:57:47;;;;;;;13.90;4.97;;;;;;;23.54;43.50;100305.66;124961;1098;104175;-78
2022/07/24 04:00:19;;;;;;;10.40;4.30;;;;;;;23.58;43.30;100304.69;125195;1099;104160;-78
2022/07/24 04:02:53;;;;;;;10.10;4.73;;;;;;;23.55;43.77;100303.88;124984;1099;104146;-77
2022/07/24 04:05:25;;;;;;;12.75;5.20;;;;;;;23.54;43.81;100297.63;126028;1098;103374;-78
2022/07/24 04:07:57;;;;;;;13.70;5.20;;;;;;;23.59;43.52;100309.14;125734;1099;104168;-78
2022/07/24 04:10:29;;;;;;;12.70;5.07;;;;;;;23.64;43.49;100309.05;125853;1099;104211;-77
2022/07/24 04:13:00;;;;;;;15.33;4.90;;;;;;;23.67;43.41;100304.49;125914;1099;104178;-78
2022/07/24 04:15:32;;;;;;;12.27;5.23;;;;;;;23.73;43.60;100307.95;124899;1099;102880;-78
2022/07/24 04:18:12;;;;;;;10.60;5.30;;;;;;;23.80;43.56;100310.46;126478;1099;104240;-78
2022/07/24 04:20:57;;;;;;;10.33;5.03;;;;;;;23.89;43.32;100309.42;125602;1099;104344;-78
2022/07/24 04:23:38;;;;;;;11.27;5.03;;;;;;;24.02;43.37;100304.66;127784;1098;101918;-78
2022/07/24 04:26:12;;;;;;;16.23;4.60;;;;;;;24.11;43.55;100306.25;126417;1099;104297;-78
2022/07/24 04:28:52;;;;;;;12.47;4.90;;;;;;;24.16;43.69;100301.66;126223;1099;104192;-78
2022/07/24 04:31:31;;;;;;;13.93;4.57;;;;;;;24.25;43.74;100311.26;125342;1102;102012;-78
2022/07/24 04:34:07;;;;;;;15.67;5.20;;;;;;;24.34;43.60;100306.58;125174;1102;104248;-78
2022/07/24 04:36:39;;;;;;;14.07;4.67;;;;;;;24.46;43.72;100307.19;125158;1102;104344;-78
2022/07/24 04:39:11;;;;;;;12.30;4.27;;;;;;;24.56;43.56;100311.42;125237;1102;102875;-78
2022/07/24 04:41:43;;;;;;;11.53;4.57;;;;;;;24.62;43.60;100307.72;125723;1102;102209;-78
2022/07/24 04:44:14;;;;;;;12.00;4.30;;;;;;;24.60;43.45;100299.70;125048;1102;104157;-78
2022/07/24 04:46:45;;;;;;;16.03;4.90;;;;;;;24.67;43.80;100303.14;124514;1102;102210;-78
2022/07/24 04:49:17;;;;;;;9.85;4.90;;;;;;;24.76;43.65;100303.77;125174;1102;104281;-78
2022/07/24 04:51:49;;;;;;;12.07;4.53;;;;;;;24.84;43.86;100306.25;124489;1102;102971;-78
2022/07/24 04:54:20;;;;;;;12.23;4.53;;;;;;;24.93;43.55;100311.37;125429;1102;102749;-79
2022/07/24 04:56:52;;;;;;;11.00;4.77;;;;;;;25.04;43.52;100316.46;125582;1099;104161;-78
2022/07/24 04:59:25;;;;;;;8.80;4.60;;;;;;;25.14;43.29;100317.08;127170;1098;102762;-78
2022/07/24 05:02:06;;;;;;;12.18;4.75;;;;;;;25.24;43.11;100320.38;126279;1099;102170;-78
2022/07/24 05:04:48;;;;;;;12.43;4.63;;;;;;;25.37;43.24;100324.53;127543;1099;104185;-79
2022/07/24 05:07:20;;;;;;;15.60;4.70;;;;;;;25.48;42.90;100325.09;126823;1098;102765;-79
2022/07/24 05:09:54;;;;;;;12.03;4.40;;;;;;;25.64;43.22;100330.03;126040;1099;104179;-79
2022/07/24 05:12:35;;;;;;;10.07;4.53;;;;;;;25.74;42.85;100326.16;125897;1099;102733;-79
2022/07/24 05:15:20;;;;;;;14.60;4.63;;;;;;;25.83;42.80;100320.47;125959;1099;104182;-78
2022/07/24 05:17:56;;;;;;;7.93;4.17;;;;;;;25.95;42.83;100329.98;125962;1099;102738;-78
2022/07/24 05:20:30;;;;;;;10.70;4.20;;;;;;;26.00;43.01;100324.50;126256;1098;104076;-78
2022/07/24 05:23:01;;;;;;;8.60;4.70;;;;;;;26.04;43.11;100328.86;125866;1099;102256;-78
2022/07/24 05:25:33;;;;;;;13.40;4.33;;;;;;;26.05;42.39;100327.05;125431;1099;102044;-78
2022/07/24 05:28:05;;;;;;;12.23;4.33;;;;;;;26.04;42.31;100326.17;125422;1099;102861;-78
2022/07/24 05:30:36;;;;;;;8.13;4.30;;;;;;;26.03;42.26;100331.59;124647;1098;104364;-79
2022/07/24 05:33:09;;;;;;;14.98;4.90;;;;;;;26.01;42.62;100326.27;124458;1102;104355;-78
2022/07/24 05:35:40;;;;;;;13.70;4.60;;;;;;;25.99;42.26;100320.94;124583;1099;104323;-79
2022/07/24 05:38:13;;;;;;;11.20;4.67;;;;;;;25.98;42.11;100321.86;125414;1102;104223;-78
2022/07/24 05:40:50;;;;;;;10.07;4.37;;;;;;;25.92;42.10;100318.45;125422;1102;102328;-79
2022/07/24 05:43:26;;;;;;;12.60;4.77;;;;;;;25.90;42.43;100328.34;125260;1102;104214;-78
2022/07/24 05:46:07;;;;;;;13.00;4.87;;;;;;;25.89;42.37;100321.23;125296;1099;104317;-78
2022/07/24 05:48:42;;;;;;;13.63;4.20;;;;;;;25.88;42.43;100324.84;125690;1102;102226;-78
2022/07/24 05:51:17;;;;;;;12.50;4.00;;;;;;;25.90;42.44;100322.97;125355;1102;104355;-79
2022/07/24 05:53:50;;;;;;;10.05;4.40;;;;;;;25.93;42.55;100318.41;125201;1099;104328;-78
2022/07/24 05:56:25;;;;;;;12.20;4.30;;;;;;;25.98;42.23;100313.79;125205;1099;102251;-78
2022/07/24 05:59:07;;;;;;;8.77;4.30;;;;;;;26.04;42.17;100310.05;125129;1099;102341;-78
2022/07/24 06:01:38;;;;;;;9.37;4.50;;;;;;;26.06;42.14;100305.48;124528;1102;102030;-78
2022/07/24 06:04:10;;;;;;;9.17;4.70;;;;;;;26.08;42.66;100305.44;125453;1099;102037;-78
2022/07/24 06:06:44;;;;;;;15.00;4.83;;;;;;;26.07;42.28;100309.95;125130;1102;102061;-78
2022/07/24 06:09:15;;;;;;;11.70;4.40;;;;;;;26.05;42.63;100303.72;125836;1099;101818;-78
2022/07/24 06:11:50;;;;;;;10.40;4.40;;;;;;;26.05;42.33;100298.34;125970;1099;104307;-78
2022/07/24 06:14:21;;;;;;;16.93;4.40;;;;;;;26.05;42.36;100292.09;124921;1099;104223;-78
2022/07/24 06:16:56;;;;;;;9.43;4.33;;;;;;;26.08;42.58;100287.48;127190;1099;101776;-78
2022/07/24 06:19:35;;;;;;;10.33;4.10;;;;;;;26.06;42.22;100289.36;126802;1099;104249;-79
2022/07/24 06:22:10;;;;;;;10.97;4.53;;;;;;;26.03;42.22;100288.58;126554;1098;108128;-78
2022/07/24 06:24:48;;;;;;;8.87;4.23;;;;;;;26.04;42.41;100293.91;126817;1098;104176;-78
2022/07/24 06:27:22;;;;;;;9.30;4.20;;;;;;;26.05;42.40;100278.65;126415;1098;104175;-77
2022/07/24 06:29:59;;;;;;;12.03;4.13;;;;;;;26.06;42.27;100262.47;125945;1099;102251;-78
2022/07/24 06:32:43;;;;;;;10.33;4.20;;;;;;;26.11;42.26;100260.50;126245;1099;103080;-78
2022/07/24 06:35:18;;;;;;;7.87;4.13;;;;;;;26.18;42.46;100256.70;126044;1099;104060;-78
2022/07/24 06:37:55;;;;;;;12.43;4.20;;;;;;;26.26;42.42;100260.95;126878;1098;101866;-78
2022/07/24 06:40:39;;;;;;;9.47;4.00;;;;;;;26.36;42.27;100278.52;127038;1099;102542;-79
2022/07/24 06:43:16;;;;;;;13.60;4.33;;;;;;;26.49;42.39;100277.20;127683;1098;101582;-79
2022/07/24 06:46:00;;;;;;;7.80;4.17;;;;;;;26.65;41.72;100272.19;125941;1099;104264;-78
2022/07/24 06:48:35;;;;;;;10.97;4.40;;;;;;;26.79;41.82;100265.47;127362;1099;101700;-78
2022/07/24 06:51:14;;;;;;;12.40;4.30;;;;;;;26.95;41.78;100263.09;126417;1098;104264;-78
2022/07/24 06:53:52;;;;;;;8.60;4.20;;;;;;;27.03;41.42;100256.48;127386;1098;102207;-78
2022/07/24 06:56:24;;;;;;;8.00;4.23;;;;;;;27.13;41.21;100251.66;127030;1099;101722;-78
2022/07/24 06:59:07;;;;;;;10.87;4.20;;;;;;;27.23;41.09;100255.75;127273;1098;103085;-79
2022/07/24 07:01:59;;;;;;;10.40;4.00;;;;;;;27.26;40.96;100260.16;126931;1098;104166;-80
2022/07/24 07:04:47;;;;;;;7.25;3.90;;;;;;;27.35;40.03;100262.54;127629;1099;101201;-79
2022/07/24 07:07:33;;;;;;;9.48;3.90;;;;;;;27.48;39.52;100254.86;127944;1098;101082;-79
2022/07/24 07:10:09;;;;;;;6.97;3.70;;;;;;;27.62;39.84;100257.89;127379;1098;101813;-79
2022/07/24 07:15:49;;;;;;;8.47;3.53;;;;;;;27.93;39.37;100251.29;127538;1098;104057;-79
2022/07/24 07:19:04;;;;;;;8.47;3.50;;;;;;;28.13;38.39;100247.81;127964;1098;101644;-78
2022/07/24 07:21:44;;;;;;;8.03;3.90;;;;;;;28.34;38.29;100242.45;126588;1099;102244;-79
2022/07/24 07:24:20;;;;;;;7.73;3.73;;;;;;;28.45;37.56;100233.91;126830;1098;102000;-78
2022/07/24 07:27:10;;;;;;;8.57;3.70;;;;;;;28.63;37.66;100237.69;127647;1099;101924;-79
2022/07/24 07:29:55;;;;;;;7.50;3.60;;;;;;;28.80;37.06;100229.71;126353;1099;104166;-79
2022/07/24 07:32:36;;;;;;;8.73;3.60;;;;;;;28.95;35.93;100227.27;126963;1099;102003;-79
2022/07/24 07:35:16;;;;;;;10.80;3.80;;;;;;;29.10;35.76;100225.70;127099;1099;101679;-79
2022/07/24 07:40:38;;;;;;;7.43;3.90;;;;;;;29.56;35.40;100228.97;126239;1099;101909;-78
2022/07/24 07:43:22;;;;;;;7.93;3.60;;;;;;;29.81;35.31;100223.31;126107;1102;102192;-79
2022/07/24 07:46:25;;;;;;;9.57;3.90;;;;;;;30.02;34.54;100221.36;126300;1099;101267;-78
2022/07/24 07:49:03;;;;;;;8.97;3.77;;;;;;;30.05;34.55;100215.80;126107;1102;101698;-79
2022/07/24 07:52:02;;;;;;;7.00;3.73;;;;;;;30.11;33.73;100215.49;126129;1102;101767;-79
2022/07/24 07:54:57;;;;;;;;;;;;;;;;;;;;;
2022/07/24 07:57:56;;;;;;;9.53;4.00;;;;;;;30.36;33.65;100205.27;126282;1101;102024;-78
2022/07/24 08:01:07;;;;;;;8.90;3.80;;;;;;;30.58;33.43;100203.22;126277;1099;101755;-78
2022/07/24 08:03:39;;;;;;;8.93;3.60;;;;;;;30.78;33.37;100199.45;126004;1099;104082;-79
2022/07/24 08:09:12;;;;;;;7.13;3.80;;;;;;;31.10;32.45;100193.28;125895;1102;101926;-80
2022/07/24 08:11:45;;;;;;;5.10;3.63;;;;;;;31.27;32.00;100195.93;125791;1100;102229;-79
2022/07/24 08:14:32;;;;;;;8.30;3.60;;;;;;;31.39;31.93;100196.23;126221;1102;101882;-79
2022/07/24 08:17:19;;;;;;;9.27;3.67;;;;;;;31.57;31.28;100186.20;126247;1102;101642;-79
2022/07/24 08:20:23;;;;;;;7.63;3.50;;;;;;;31.69;31.08;100185.50;127602;1098;103117;-78
2022/07/24 08:23:17;;;;;;;11.27;3.80;;;;;;;31.86;30.47;100185.39;126619;1099;102138;-79
2022/07/24 08:25:54;;;;;;;7.43;3.90;;;;;;;32.05;30.28;100182.50;127583;1098;101768;-79
2022/07/24 08:29:02;;;;;;;8.37;3.80;;;;;;;32.12;29.83;100182.16;126812;1098;103213;-79
2022/07/24 08:31:42;;;;;;;8.53;3.90;;;;;;;32.30;29.64;100191.89;127531;1098;101446;-79
2022/07/24 08:34:21;;;;;;;6.63;3.87;;;;;;;32.45;29.79;100195.54;127268;1099;102182;-79
2022/07/24 08:37:09;;;;;;;8.93;3.50;;;;;;;32.67;29.31;100202.41;127574;1098;101972;-78
2022/07/24 08:39:44;;;;;;;11.77;3.60;;;;;;;32.96;29.37;100197.89;126982;1099;102868;-78
2022/07/24 08:42:51;;;;;;;9.87;4.10;;;;;;;33.15;28.96;100198.46;127681;1098;102148;-79
2022/07/24 08:46:02;;;;;;;12.07;4.63;;;;;;;33.34;28.65;100201.89;127803;1098;111721;-79
2022/07/24 08:48:38;;;;;;;9.40;4.27;;;;;;;33.47;28.45;100203.72;125917;1102;101987;-78
2022/07/24 08:51:17;;;;;;;11.03;3.75;;;;;;;33.54;28.46;100214.20;125767;1102;102346;-79
2022/07/24 08:54:22;;;;;;;11.40;4.20;;;;;;;33.55;27.71;100219.55;125877;1101;104163;-79
2022/07/24 08:57:07;;;;;;;9.97;3.93;;;;;;;33.61;27.95;100230.03;126290;1102;101719;-79
2022/07/24 08:59:54;;;;;;;7.37;4.03;;;;;;;33.57;27.65;100227.61;126050;1102;102093;-78
2022/07/24 09:02:31;;;;;;;10.77;4.00;;;;;;;33.53;27.91;100234.20;126302;1102;101141;-79
2022/07/24 09:05:08;;;;;;;7.17;4.20;;;;;;;33.49;27.82;100241.70;125370;1101;102281;-79
2022/07/24 09:08:10;;;;;;;7.50;3.90;;;;;;;33.46;27.74;100244.61;125702;1099;104178;-79
2022/07/24 09:11:00;;;;;;;7.30;3.60;;;;;;;33.43;27.76;100234.80;126182;1099;104265;-79
2022/07/24 09:16:41;;;;;;;10.90;3.90;;;;;;;33.46;27.79;100233.73;125487;1099;101831;-79
2022/07/24 09:19:18;;;;;;;12.93;4.13;;;;;;;33.48;27.80;100238.08;125863;1099;102183;-80
2022/07/24 09:21:55;;;;;;;7.57;4.17;;;;;;;33.52;28.32;100237.88;125994;1099;103181;-78
2022/07/24 09:24:26;;;;;;;7.93;4.07;;;;;;;33.55;28.14;100234.97;126883;1099;104261;-79
2022/07/24 09:27:04;;;;;;;5.80;3.80;;;;;;;33.61;27.90;100246.34;126281;1099;104179;-79
2022/07/24 09:30:01;;;;;;;12.77;4.33;;;;;;;33.70;27.97;100242.13;126566;1099;102337;-79
2022/07/24 09:32:36;;;;;;;8.40;4.00;;;;;;;33.75;27.27;100236.42;127387;1099;102241;-79
2022/07/24 09:35:15;;;;;;;7.93;4.00;;;;;;;33.72;27.34;100242.07;126238;1099;102083;-80
2022/07/24 09:37:58;;;;;;;6.37;3.63;;;;;;;33.68;27.03;100242.23;126368;1098;104574;-79
2022/07/24 09:40:38;;;;;;;9.73;4.03;;;;;;;33.65;27.30;100245.16;125906;1099;104234;-79
2022/07/24 09:43:27;;;;;;;7.50;3.90;;;;;;;33.60;27.21;100246.45;126157;1098;104286;-79
2022/07/24 09:46:14;;;;;;;7.43;4.50;;;;;;;33.44;26.94;100250.16;126840;1098;104172;-79
2022/07/24 09:48:58;;;;;;;7.70;4.00;;;;;;;33.28;27.10;100254.80;126681;1098;104296;-79
2022/07/24 09:51:41;;;;;;;8.43;4.10;;;;;;;33.07;27.21;100257.02;126151;1099;104066;-79
2022/07/24 09:54:27;;;;;;;11.70;4.17;;;;;;;32.90;27.17;100274.36;126076;1099;101761;-80
2022/07/24 09:57:19;;;;;;;14.13;4.47;;;;;;;32.62;28.49;100278.70;125625;1102;102252;-80
2022/07/24 09:59:58;;;;;;;15.40;5.10;;;;;;;32.14;32.78;100294.21;125539;1102;104133;-80
2022/07/24 10:03:08;;;;;;;25.87;6.20;;;;;;;31.38;33.70;100294.77;125434;1102;104163;-79
2022/07/24 10:05:54;;;;;;;19.42;4.85;;;;;;;30.52;38.61;100305.54;125385;1103;104254;-79
2022/07/24 10:08:32;;;;;;;14.60;4.87;;;;;;;29.76;38.38;100322.66;125438;1102;102536;-79
2022/07/24 10:11:15;;;;;;;24.93;6.07;;;;;;;29.01;43.35;100326.92;125610;1102;104172;-78
2022/07/24 10:14:06;;;;;;;10.30;4.15;;;;;;;28.11;44.33;100341.41;125846;1099;102451;-79
2022/07/24 10:17:01;;;;;;;10.83;5.00;;;;;;;27.26;45.92;100333.75;125692;1099;104323;-79
2022/07/24 10:19:48;;;;;;;10.30;4.93;;;;;;;26.66;47.62;100337.64;125474;1099;104169;-78
2022/07/24 10:22:23;;;;;;;8.97;4.93;;;;;;;26.12;46.56;100332.18;125440;1100;104187;-78
2022/07/24 10:25:05;;;;;;;16.57;5.23;;;;;;;25.78;48.41;100345.74;125323;1102;104265;-79
2022/07/24 10:27:42;;;;;;;14.87;5.47;;;;;;;25.49;49.17;100344.77;125206;1102;104333;-78
2022/07/24 10:30:14;;;;;;;15.37;5.90;;;;;;;25.29;50.44;100339.95;125376;1099;104323;-78
2022/07/24 10:32:49;;;;;;;11.37;5.10;;;;;;;25.17;50.04;100329.55;125491;1099;104179;-78
2022/07/24 10:35:28;;;;;;;14.60;5.50;;;;;;;25.09;50.18;100319.02;126666;1099;104237;-78
2022/07/24 10:38:10;;;;;;;12.67;5.87;;;;;;;25.04;51.34;100308.41;126438;1099;102115;-78
2022/07/24 10:40:48;;;;;;;16.87;5.73;;;;;;;25.06;51.76;100306.55;126158;1099;102242;-79
2022/07/24 10:43:29;;;;;;;10.73;5.63;;;;;;;25.09;51.92;100300.23;126393;1099;104173;-78
2022/07/24 10:46:16;;;;;;;12.50;5.30;;;;;;;25.10;52.25;100289.45;126597;1099;103227;-78
2022/07/24 10:48:52;;;;;;;13.77;6.50;;;;;;;25.14;52.95;100275.94;126289;1099;104175;-78
2022/07/24 10:51:27;;;;;;;14.70;5.90;;;;;;;25.18;53.23;100277.59;126776;1098;101970;-77
2022/07/24 10:53:58;;;;;;;14.87;6.27;;;;;;;25.23;53.96;100281.92;124807;1099;104187;-77
2022/07/24 10:56:46;;;;;;;16.73;6.13;;;;;;;25.31;54.66;100281.73;125435;1099;104194;-77
2022/07/24 10:59:32;;;;;;;17.53;6.40;;;;;;;25.40;54.74;100285.94;124886;1099;104265;-77
2022/07/24 11:02:32;;;;;;;15.83;5.90;;;;;;;25.45;54.82;100278.66;125593;1099;104284;-78
2022/07/24 11:05:36;;;;;;;17.97;6.00;;;;;;;25.44;55.53;100275.06;124783;1099;102149;-77
2022/07/24 11:08:29;;;;;;;;;;;;;;;25.43;53.85;100267.95;124296;1102;104242;-77
2022/07/24 11:11:19;;;;;;;17.30;6.20;;;;;;;25.48;55.78;100252.57;124216;1102;102358;-77
2022/07/24 11:13:57;;;;;;;15.13;6.50;;;;;;;25.52;56.89;100249.80;124216;1102;103038;-77
2022/07/24 11:16:30;;;;;;;15.53;7.33;;;;;;;25.52;56.67;100244.42;124270;1102;104903;-78
2022/07/24 11:19:29;;;;;;;19.05;7.42;;;;;;;25.58;56.69;100239.73;124256;1102;104384;-77
2022/07/24 11:22:12;;;;;;;17.90;6.80;;;;;;;25.63;57.11;100231.53;124291;1103;104172;-77
2022/07/24 11:25:10;;;;;;;21.80;7.37;;;;;;;25.67;57.43;100218.91;124245;1102;103038;-77
2022/07/24 11:27:50;;;;;;;15.73;6.83;;;;;;;25.70;57.51;100221.50;124251;1102;104370;-77
2022/07/24 11:30:24;;;;;;;14.60;6.97;;;;;;;25.75;57.94;100219.53;124223;1102;104320;-77
2022/07/24 11:32:56;;;;;;;15.80;7.53;;;;;;;25.90;58.27;100221.73;124301;1102;104249;-77
2022/07/24 11:35:35;;;;;;;21.63;7.77;;;;;;;26.08;59.15;100222.96;124217;1101;103584;-77
2022/07/24 11:38:08;;;;;;;17.93;7.87;;;;;;;26.26;59.13;100224.17;124238;1102;104605;-77
2022/07/24 11:40:40;;;;;;;18.97;7.57;;;;;;;26.40;59.20;100212.95;124671;1099;102162;-77
2022/07/24 11:43:12;;;;;;;14.67;7.53;;;;;;;26.43;59.21;100210.16;124855;1099;102797;-78
2022/07/24 11:45:54;;;;;;;19.30;8.80;;;;;;;26.59;59.94;100217.69;124928;1099;103258;-77
2022/07/24 11:48:25;;;;;;;17.30;7.07;;;;;;;26.63;59.51;100208.55;125954;1098;102122;-77
2022/07/24 11:51:07;;;;;;;16.63;7.10;;;;;;;26.64;59.20;100211.19;124839;1099;104165;-78
2022/07/24 11:53:38;;;;;;;13.73;7.00;;;;;;;26.71;59.33;100209.22;125042;1099;104864;-78
2022/07/24 11:56:13;;;;;;;16.23;7.63;;;;;;;26.81;59.26;100218.70;125234;1099;104235;-78
2022/07/24 11:58:44;;;;;;;13.57;7.47;;;;;;;26.92;59.27;100202.16;124996;1099;102902;-78
2022/07/24 12:01:26;;;;;;;13.67;7.10;;;;;;;27.03;58.98;100201.77;125132;1099;102689;-78
2022/07/24 12:04:01;;;;;;;13.87;7.13;;;;;;;27.09;58.32;100201.53;125149;1099;104345;-78